Hermanos Serdan International Airport
MMPB : now visible

Airfield :











YOU CAN JOIN US ON...

 
LOGIN :

Register | Disclaimer

   EN    FR    IT 

 









Legend :    VFR   Marginal VFR   IFR   Intensive IFR   Very Intensive IFR
Visi :
Ceiling :
>= 8 km
>= 3000ft
5 to 8 km
1000 to 3000 ft
1500m to 5 km
500 to 1000 ft
800 to 1500m
200 to 500 ft
< 800m
< 200 ft
Symbols :   Thunderstorms  Fog  Heavy snow  Heavy precipitations  Wind > 20 kt






- Airport Elevation : 7361 ft
- IATA code : PBC


MMPB - Hermanos Serdan International

CURRENT METAR :
  • 260143Z 30003KT 8SM FEW020 BKN080 14/12 A3035 RMK 8/530 HZY

EXPIRED METARs :
  • 260043Z 33006KT 9SM BKN020 BKN080 BKN220 14/13 A3033 RMK 8/432 HZY
  • 252351Z 34007KT 7SM FEW005 BKN020 OVC080 15/13 A3032 RMK 8/43/ HZY OCNL DROPS

TAF TAF MMPB
Valid from the 25 at 18:00 until the 26 at 18:00 UTC


251614Z 2518/2618 16005KT P6SM BKN025 BKN080
TEMPO 2520/2600 3SM TSRA BKN10CB
FM260000 04005KT 5SM -RA BKN020 BKN080
TEMPO 2602/2606 4SM TSRA BKN020CB
FM260600 35005KT 5SM BR BKN015
TEMPO 2610/2614 2SM BR -DZ OVC010
MMFR FIR / North America



MET'MAP, your aeronautical weather chart ! - Copyright ORBIFLY December 2007 - Disclaimer

ORBIFLY MET'MAP TEAM :

Programming & Development : Alexandra Zaïnal
Concept & original design : Baudouin d'Aumeries
Assistance for programming : Marc-Olivier Méhu
Technical & hardware support : Manuel Goepfert

Contact : metmap@orbifly.com




SOURCES & CREDITS :

   NOAA       Earth
Advisory